sensor_id;sensor_type;location;lat;lon;timestamp;temperature;humidity
14014;DHT22;49110;52.584;13.408;2023-08-21T00:00:08;23.80;99.90
14014;DHT22;49110;52.584;13.408;2023-08-21T00:01:08;23.80;99.90
14014;DHT22;49110;52.584;13.408;2023-08-21T00:02:09;23.90;99.90
14014;DHT22;49110;52.584;13.408;2023-08-21T00:03:10;23.90;99.90
14014;DHT22;49110;52.584;13.408;2023-08-21T00:04:10;23.80;99.90
14014;DHT22;49110;52.584;13.408;2023-08-21T00:05:10;23.90;99.90
14014;DHT22;49110;52.584;13.408;2023-08-21T00:06:11;23.80;99.90
14014;DHT22;49110;52.584;13.408;2023-08-21T00:07:12;23.90;99.90
14014;DHT22;49110;52.584;13.408;2023-08-21T00:08:12;23.80;99.90
14014;DHT22;49110;52.584;13.408;2023-08-21T00:09:13;23.90;99.90
14014;DHT22;49110;52.584;13.408;2023-08-21T00:10:13;23.90;99.90
14014;DHT22;49110;52.584;13.408;2023-08-21T00:11:14;23.90;99.90
14014;DHT22;49110;52.584;13.408;2023-08-21T00:12:14;23.80;99.90
14014;DHT22;49110;52.584;13.408;2023-08-21T00:13:15;23.80;99.90
14014;DHT22;49110;52.584;13.408;2023-08-21T00:14:15;23.70;99.90
14014;DHT22;49110;52.584;13.408;2023-08-21T00:15:16;23.70;99.90
14014;DHT22;49110;52.584;13.408;2023-08-21T00:16:17;23.70;99.90
14014;DHT22;49110;52.584;13.408;2023-08-21T00:17:17;23.70;99.90
14014;DHT22;49110;52.584;13.408;2023-08-21T00:18:18;23.70;99.90
14014;DHT22;49110;52.584;13.408;2023-08-21T00:19:18;23.70;99.90
14014;DHT22;49110;52.584;13.408;2023-08-21T00:20:19;23.70;99.90
14014;DHT22;49110;52.584;13.408;2023-08-21T00:21:20;23.70;99.90
14014;DHT22;49110;52.584;13.408;2023-08-21T00:22:20;23.70;99.90
14014;DHT22;49110;52.584;13.408;2023-08-21T00:23:21;23.70;99.90
14014;DHT22;49110;52.584;13.408;2023-08-21T00:24:21;23.80;99.90
14014;DHT22;49110;52.584;13.408;2023-08-21T00:25:22;23.70;99.90
14014;DHT22;49110;52.584;13.408;2023-08-21T00:26:23;23.70;99.90
14014;DHT22;49110;52.584;13.408;2023-08-21T00:27:23;23.70;99.90
14014;DHT22;49110;52.584;13.408;2023-08-21T00:28:24;23.70;99.90
14014;DHT22;49110;52.584;13.408;2023-08-21T00:29:24;23.70;99.90
14014;DHT22;49110;52.584;13.408;2023-08-21T00:30:25;23.70;99.90
14014;DHT22;49110;52.584;13.408;2023-08-21T00:31:25;23.60;99.90
14014;DHT22;49110;52.584;13.408;2023-08-21T00:32:26;23.60;99.90
14014;DHT22;49110;52.584;13.408;2023-08-21T00:33:26;23.70;99.90
14014;DHT22;49110;52.584;13.408;2023-08-21T00:34:27;23.70;99.90
14014;DHT22;49110;52.584;13.408;2023-08-21T00:35:27;23.70;99.90
14014;DHT22;49110;52.584;13.408;2023-08-21T00:36:27;23.70;99.90
14014;DHT22;49110;52.584;13.408;2023-08-21T00:37:28;23.60;99.90
14014;DHT22;49110;52.584;13.408;2023-08-21T00:38:28;23.60;99.90
14014;DHT22;49110;52.584;13.408;2023-08-21T00:39:29;23.70;99.90
14014;DHT22;49110;52.584;13.408;2023-08-21T00:40:31;23.60;99.90
14014;DHT22;49110;52.584;13.408;2023-08-21T00:41:31;23.70;99.90
14014;DHT22;49110;52.584;13.408;2023-08-21T00:42:34;23.60;99.90
14014;DHT22;49110;52.584;13.408;2023-08-21T00:43:34;23.60;99.90
14014;DHT22;49110;52.584;13.408;2023-08-21T00:44:35;23.70;99.90
14014;DHT22;49110;52.584;13.408;2023-08-21T00:45:41;23.60;99.90
14014;DHT22;49110;52.584;13.408;2023-08-21T00:46:42;23.70;99.90
14014;DHT22;49110;52.584;13.408;2023-08-21T00:47:43;23.70;99.90
14014;DHT22;49110;52.584;13.408;2023-08-21T00:48:44;23.70;99.90
14014;DHT22;49110;52.584;13.408;2023-08-21T00:49:45;23.60;99.90
14014;DHT22;49110;52.584;13.408;2023-08-21T00:50:45;23.60;99.90
14014;DHT22;49110;52.584;13.408;2023-08-21T00:51:47;23.50;99.90
14014;DHT22;49110;52.584;13.408;2023-08-21T00:52:49;23.60;99.90
14014;DHT22;49110;52.584;13.408;2023-08-21T00:53:50;23.50;99.90
14014;DHT22;49110;52.584;13.408;2023-08-21T00:54:51;23.50;99.90
14014;DHT22;49110;52.584;13.408;2023-08-21T00:55:52;23.50;99.90
14014;DHT22;49110;52.584;13.408;2023-08-21T00:56:52;23.50;99.90
14014;DHT22;49110;52.584;13.408;2023-08-21T00:57:53;23.50;99.90
14014;DHT22;49110;52.584;13.408;2023-08-21T00:58:53;23.50;99.90
14014;DHT22;49110;52.584;13.408;2023-08-21T00:59:54;23.50;99.90
14014;DHT22;49110;52.584;13.408;2023-08-21T01:00:55;23.50;99.90
14014;DHT22;49110;52.584;13.408;2023-08-21T01:01:56;23.50;99.90
14014;DHT22;49110;52.584;13.408;2023-08-21T01:02:56;23.50;99.90
14014;DHT22;49110;52.584;13.408;2023-08-21T01:03:56;23.60;99.90
14014;DHT22;49110;52.584;13.408;2023-08-21T01:04:57;23.60;99.90
14014;DHT22;49110;52.584;13.408;2023-08-21T01:05:58;23.60;99.90
14014;DHT22;49110;52.584;13.408;2023-08-21T01:06:58;23.60;99.90
14014;DHT22;49110;52.584;13.408;2023-08-21T01:08:05;23.60;99.90
14014;DHT22;49110;52.584;13.408;2023-08-21T01:09:15;23.60;99.90
14014;DHT22;49110;52.584;13.408;2023-08-21T01:10:28;23.50;99.90
14014;DHT22;49110;52.584;13.408;2023-08-21T01:13:13;23.60;99.90
14014;DHT22;49110;52.584;13.408;2023-08-21T01:14:50;23.60;99.90
14014;DHT22;49110;52.584;13.408;2023-08-21T01:15:54;23.60;99.90
14014;DHT22;49110;52.584;13.408;2023-08-21T01:16:59;23.60;99.90
14014;DHT22;49110;52.584;13.408;2023-08-21T01:17:59;23.60;99.90
14014;DHT22;49110;52.584;13.408;2023-08-21T01:19:01;23.50;99.90
14014;DHT22;49110;52.584;13.408;2023-08-21T01:20:06;23.50;99.90
14014;DHT22;49110;52.584;13.408;2023-08-21T01:21:08;23.50;99.90
14014;DHT22;49110;52.584;13.408;2023-08-21T01:22:09;23.50;99.90
14014;DHT22;49110;52.584;13.408;2023-08-21T01:23:10;23.50;99.90
14014;DHT22;49110;52.584;13.408;2023-08-21T01:24:10;23.50;99.90
14014;DHT22;49110;52.584;13.408;2023-08-21T01:25:11;23.50;99.90
14014;DHT22;49110;52.584;13.408;2023-08-21T01:26:11;23.50;99.90
14014;DHT22;49110;52.584;13.408;2023-08-21T01:27:13;23.50;99.90
14014;DHT22;49110;52.584;13.408;2023-08-21T01:28:14;23.50;99.90
14014;DHT22;49110;52.584;13.408;2023-08-21T01:29:15;23.50;99.90
14014;DHT22;49110;52.584;13.408;2023-08-21T01:30:16;23.50;99.90
14014;DHT22;49110;52.584;13.408;2023-08-21T01:31:37;23.50;99.90
14014;DHT22;49110;52.584;13.408;2023-08-21T01:33:01;23.50;99.90
14014;DHT22;49110;52.584;13.408;2023-08-21T01:34:08;23.50;99.90
14014;DHT22;49110;52.584;13.408;2023-08-21T01:35:11;23.50;99.90
14014;DHT22;49110;52.584;13.408;2023-08-21T01:36:12;23.50;99.90
14014;DHT22;49110;52.584;13.408;2023-08-21T01:37:13;23.50;99.90
14014;DHT22;49110;52.584;13.408;2023-08-21T01:38:15;23.40;99.90
14014;DHT22;49110;52.584;13.408;2023-08-21T01:39:15;23.30;99.90
14014;DHT22;49110;52.584;13.408;2023-08-21T01:40:22;23.30;99.90
14014;DHT22;49110;52.584;13.408;2023-08-21T01:41:24;23.30;99.90
14014;DHT22;49110;52.584;13.408;2023-08-21T01:42:25;23.30;99.90
14014;DHT22;49110;52.584;13.408;2023-08-21T01:43:25;23.30;99.90
14014;DHT22;49110;52.584;13.408;2023-08-21T01:44:26;23.40;99.90
14014;DHT22;49110;52.584;13.408;2023-08-21T01:45:26;23.40;99.90
14014;DHT22;49110;52.584;13.408;2023-08-21T01:46:27;23.40;99.90
14014;DHT22;49110;52.584;13.408;2023-08-21T01:47:27;23.40;99.90
14014;DHT22;49110;52.584;13.408;2023-08-21T01:48:28;23.40;99.90
14014;DHT22;49110;52.584;13.408;2023-08-21T01:49:28;23.40;99.90
14014;DHT22;49110;52.584;13.408;2023-08-21T01:50:29;23.50;99.90
14014;DHT22;49110;52.584;13.408;2023-08-21T01:51:29;23.50;99.90
14014;DHT22;49110;52.584;13.408;2023-08-21T01:52:30;23.50;99.90
14014;DHT22;49110;52.584;13.408;2023-08-21T01:53:30;23.40;99.90
14014;DHT22;49110;52.584;13.408;2023-08-21T01:54:31;23.30;99.90
14014;DHT22;49110;52.584;13.408;2023-08-21T01:55:31;23.20;99.90
14014;DHT22;49110;52.584;13.408;2023-08-21T01:56:32;23.10;99.90
14014;DHT22;49110;52.584;13.408;2023-08-21T01:57:32;23.10;99.90
14014;DHT22;49110;52.584;13.408;2023-08-21T01:58:33;23.10;99.90
14014;DHT22;49110;52.584;13.408;2023-08-21T01:59:33;23.10;99.90
14014;DHT22;49110;52.584;13.408;2023-08-21T02:00:34;23.20;99.90
14014;DHT22;49110;52.584;13.408;2023-08-21T02:01:34;23.30;99.90
14014;DHT22;49110;52.584;13.408;2023-08-21T02:02:35;23.30;99.90
14014;DHT22;49110;52.584;13.408;2023-08-21T02:03:35;23.40;99.90
14014;DHT22;49110;52.584;13.408;2023-08-21T02:04:36;23.50;99.90
14014;DHT22;49110;52.584;13.408;2023-08-21T02:05:40;23.60;99.90
14014;DHT22;49110;52.584;13.408;2023-08-21T02:06:40;23.60;99.90
14014;DHT22;49110;52.584;13.408;2023-08-21T02:07:41;23.60;99.90
14014;DHT22;49110;52.584;13.408;2023-08-21T02:08:41;23.60;99.90
14014;DHT22;49110;52.584;13.408;2023-08-21T02:09:42;23.60;99.90
14014;DHT22;49110;52.584;13.408;2023-08-21T02:10:51;23.60;99.90
14014;DHT22;49110;52.584;13.408;2023-08-21T02:11:52;23.60;99.90
14014;DHT22;49110;52.584;13.408;2023-08-21T02:12:52;23.50;99.90
14014;DHT22;49110;52.584;13.408;2023-08-21T02:13:54;23.40;99.90
14014;DHT22;49110;52.584;13.408;2023-08-21T02:14:55;23.40;99.90
14014;DHT22;49110;52.584;13.408;2023-08-21T02:15:55;23.40;99.90
14014;DHT22;49110;52.584;13.408;2023-08-21T02:16:56;23.50;99.90
14014;DHT22;49110;52.584;13.408;2023-08-21T02:17:56;23.50;99.90
14014;DHT22;49110;52.584;13.408;2023-08-21T02:18:56;23.50;99.90
14014;DHT22;49110;52.584;13.408;2023-08-21T02:19:57;23.50;99.90
14014;DHT22;49110;52.584;13.408;2023-08-21T02:20:59;23.50;99.90
14014;DHT22;49110;52.584;13.408;2023-08-21T02:22:00;23.50;99.90
14014;DHT22;49110;52.584;13.408;2023-08-21T02:23:01;23.40;99.90
14014;DHT22;49110;52.584;13.408;2023-08-21T02:24:01;23.50;99.90
14014;DHT22;49110;52.584;13.408;2023-08-21T02:25:02;23.50;99.90
14014;DHT22;49110;52.584;13.408;2023-08-21T02:26:03;23.50;99.90
14014;DHT22;49110;52.584;13.408;2023-08-21T02:27:03;23.50;99.90
14014;DHT22;49110;52.584;13.408;2023-08-21T02:28:04;23.50;99.90
14014;DHT22;49110;52.584;13.408;2023-08-21T02:29:04;23.50;99.90
14014;DHT22;49110;52.584;13.408;2023-08-21T02:30:05;23.50;99.90
14014;DHT22;49110;52.584;13.408;2023-08-21T02:31:09;23.50;99.90
14014;DHT22;49110;52.584;13.408;2023-08-21T02:32:10;23.60;99.90
14014;DHT22;49110;52.584;13.408;2023-08-21T02:33:11;23.50;99.90
14014;DHT22;49110;52.584;13.408;2023-08-21T02:34:11;23.50;99.90
14014;DHT22;49110;52.584;13.408;2023-08-21T02:35:12;23.50;99.90
14014;DHT22;49110;52.584;13.408;2023-08-21T02:36:12;23.50;99.90
14014;DHT22;49110;52.584;13.408;2023-08-21T02:37:13;23.50;99.90
14014;DHT22;49110;52.584;13.408;2023-08-21T02:38:13;23.50;99.90
14014;DHT22;49110;52.584;13.408;2023-08-21T02:39:14;23.50;99.90
14014;DHT22;49110;52.584;13.408;2023-08-21T02:40:14;23.50;99.90
14014;DHT22;49110;52.584;13.408;2023-08-21T02:41:15;23.50;99.90
14014;DHT22;49110;52.584;13.408;2023-08-21T02:42:15;23.50;99.90
14014;DHT22;49110;52.584;13.408;2023-08-21T02:43:16;23.50;99.90
14014;DHT22;49110;52.584;13.408;2023-08-21T02:44:17;23.50;99.90
14014;DHT22;49110;52.584;13.408;2023-08-21T02:45:17;23.50;99.90
14014;DHT22;49110;52.584;13.408;2023-08-21T02:46:19;23.50;99.90
14014;DHT22;49110;52.584;13.408;2023-08-21T02:47:20;23.50;99.90
14014;DHT22;49110;52.584;13.408;2023-08-21T02:48:20;23.60;99.90
14014;DHT22;49110;52.584;13.408;2023-08-21T02:49:21;23.60;99.90
14014;DHT22;49110;52.584;13.408;2023-08-21T02:50:21;23.60;99.90
14014;DHT22;49110;52.584;13.408;2023-08-21T02:51:22;23.60;99.90
14014;DHT22;49110;52.584;13.408;2023-08-21T02:52:22;23.60;99.90
14014;DHT22;49110;52.584;13.408;2023-08-21T02:53:23;23.50;99.90
14014;DHT22;49110;52.584;13.408;2023-08-21T02:54:23;23.50;99.90
14014;DHT22;49110;52.584;13.408;2023-08-21T02:55:24;23.50;99.90
14014;DHT22;49110;52.584;13.408;2023-08-21T02:56:24;23.50;99.90
14014;DHT22;49110;52.584;13.408;2023-08-21T02:57:25;23.50;99.90
14014;DHT22;49110;52.584;13.408;2023-08-21T02:58:26;23.50;99.90
14014;DHT22;49110;52.584;13.408;2023-08-21T02:59:27;23.50;99.90
14014;DHT22;49110;52.584;13.408;2023-08-21T03:00:27;23.50;99.90
14014;DHT22;49110;52.584;13.408;2023-08-21T03:01:27;23.50;99.90
14014;DHT22;49110;52.584;13.408;2023-08-21T03:02:28;23.50;99.90
14014;DHT22;49110;52.584;13.408;2023-08-21T03:03:28;23.50;99.90
14014;DHT22;49110;52.584;13.408;2023-08-21T03:04:29;23.50;99.90
14014;DHT22;49110;52.584;13.408;2023-08-21T03:05:29;23.50;99.90
14014;DHT22;49110;52.584;13.408;2023-08-21T03:06:30;23.60;99.90
14014;DHT22;49110;52.584;13.408;2023-08-21T03:07:30;23.60;99.90
14014;DHT22;49110;52.584;13.408;2023-08-21T03:08:31;23.60;99.90
14014;DHT22;49110;52.584;13.408;2023-08-21T03:09:31;23.50;99.90
14014;DHT22;49110;52.584;13.408;2023-08-21T03:10:32;23.50;99.90
14014;DHT22;49110;52.584;13.408;2023-08-21T03:11:34;23.50;99.90
14014;DHT22;49110;52.584;13.408;2023-08-21T03:12:35;23.50;99.90
14014;DHT22;49110;52.584;13.408;2023-08-21T03:13:35;23.60;99.90
14014;DHT22;49110;52.584;13.408;2023-08-21T03:14:36;23.50;99.90
14014;DHT22;49110;52.584;13.408;2023-08-21T03:15:36;23.60;99.90
14014;DHT22;49110;52.584;13.408;2023-08-21T03:16:37;23.50;99.90
14014;DHT22;49110;52.584;13.408;2023-08-21T03:17:37;23.60;99.90
14014;DHT22;49110;52.584;13.408;2023-08-21T03:18:54;23.50;99.90
14014;DHT22;49110;52.584;13.408;2023-08-21T03:19:55;23.60;99.90
14014;DHT22;49110;52.584;13.408;2023-08-21T03:20:56;23.60;99.90
14014;DHT22;49110;52.584;13.408;2023-08-21T03:21:56;23.60;99.90
14014;DHT22;49110;52.584;13.408;2023-08-21T03:22:57;23.60;99.90
14014;DHT22;49110;52.584;13.408;2023-08-21T03:23:58;23.60;99.90
14014;DHT22;49110;52.584;13.408;2023-08-21T03:24:59;23.60;99.90
14014;DHT22;49110;52.584;13.408;2023-08-21T03:26:00;23.60;99.90
14014;DHT22;49110;52.584;13.408;2023-08-21T03:27:01;23.60;99.90
14014;DHT22;49110;52.584;13.408;2023-08-21T03:28:02;23.70;99.90
14014;DHT22;49110;52.584;13.408;2023-08-21T03:29:02;23.60;99.90
14014;DHT22;49110;52.584;13.408;2023-08-21T03:30:03;23.50;99.90
14014;DHT22;49110;52.584;13.408;2023-08-21T03:31:04;23.50;99.90
14014;DHT22;49110;52.584;13.408;2023-08-21T03:32:05;23.50;99.90
14014;DHT22;49110;52.584;13.408;2023-08-21T03:33:05;23.50;99.90
14014;DHT22;49110;52.584;13.408;2023-08-21T03:34:07;23.50;99.90
14014;DHT22;49110;52.584;13.408;2023-08-21T03:35:08;23.60;99.90
14014;DHT22;49110;52.584;13.408;2023-08-21T03:36:09;23.60;99.90
14014;DHT22;49110;52.584;13.408;2023-08-21T03:37:09;23.60;99.90
14014;DHT22;49110;52.584;13.408;2023-08-21T03:38:10;23.60;99.90
14014;DHT22;49110;52.584;13.408;2023-08-21T03:39:11;23.60;99.90
14014;DHT22;49110;52.584;13.408;2023-08-21T03:40:11;23.60;99.90
14014;DHT22;49110;52.584;13.408;2023-08-21T03:41:12;23.60;99.90
14014;DHT22;49110;52.584;13.408;2023-08-21T03:42:12;23.60;99.90
14014;DHT22;49110;52.584;13.408;2023-08-21T03:43:13;23.60;99.90
14014;DHT22;49110;52.584;13.408;2023-08-21T03:44:13;23.50;99.90
14014;DHT22;49110;52.584;13.408;2023-08-21T03:45:14;23.50;99.90
14014;DHT22;49110;52.584;13.408;2023-08-21T03:46:14;23.60;99.90
14014;DHT22;49110;52.584;13.408;2023-08-21T03:47:16;23.60;99.90
14014;DHT22;49110;52.584;13.408;2023-08-21T03:48:16;23.60;99.90
14014;DHT22;49110;52.584;13.408;2023-08-21T03:49:17;23.60;99.90
14014;DHT22;49110;52.584;13.408;2023-08-21T03:50:17;23.50;99.90
14014;DHT22;49110;52.584;13.408;2023-08-21T03:51:17;23.60;99.90
14014;DHT22;49110;52.584;13.408;2023-08-21T03:52:18;23.60;99.90
14014;DHT22;49110;52.584;13.408;2023-08-21T03:53:18;23.60;99.90
14014;DHT22;49110;52.584;13.408;2023-08-21T03:54:19;23.60;99.90
14014;DHT22;49110;52.584;13.408;2023-08-21T03:55:19;23.50;99.90
14014;DHT22;49110;52.584;13.408;2023-08-21T03:56:20;23.60;99.90
14014;DHT22;49110;52.584;13.408;2023-08-21T03:57:22;23.50;99.90
14014;DHT22;49110;52.584;13.408;2023-08-21T03:58:22;23.60;99.90
14014;DHT22;49110;52.584;13.408;2023-08-21T03:59:23;23.60;99.90
14014;DHT22;49110;52.584;13.408;2023-08-21T04:00:24;23.60;99.90
14014;DHT22;49110;52.584;13.408;2023-08-21T04:01:24;23.60;99.90
14014;DHT22;49110;52.584;13.408;2023-08-21T04:02:25;23.50;99.90
14014;DHT22;49110;52.584;13.408;2023-08-21T04:03:25;23.50;99.90
14014;DHT22;49110;52.584;13.408;2023-08-21T04:04:26;23.50;99.90
14014;DHT22;49110;52.584;13.408;2023-08-21T04:05:26;23.50;99.90
14014;DHT22;49110;52.584;13.408;2023-08-21T04:06:27;23.50;99.90
14014;DHT22;49110;52.584;13.408;2023-08-21T04:07:27;23.50;99.90
14014;DHT22;49110;52.584;13.408;2023-08-21T04:08:27;23.50;99.90
14014;DHT22;49110;52.584;13.408;2023-08-21T04:09:28;23.50;99.90
14014;DHT22;49110;52.584;13.408;2023-08-21T04:10:28;23.40;99.90
14014;DHT22;49110;52.584;13.408;2023-08-21T04:11:29;23.40;99.90
14014;DHT22;49110;52.584;13.408;2023-08-21T04:12:29;23.50;99.90
14014;DHT22;49110;52.584;13.408;2023-08-21T04:13:30;23.40;99.90
14014;DHT22;49110;52.584;13.408;2023-08-21T04:14:30;23.40;99.90
14014;DHT22;49110;52.584;13.408;2023-08-21T04:15:33;23.50;99.90
14014;DHT22;49110;52.584;13.408;2023-08-21T04:16:33;23.50;99.90
14014;DHT22;49110;52.584;13.408;2023-08-21T04:17:34;23.40;99.90
14014;DHT22;49110;52.584;13.408;2023-08-21T04:18:34;23.50;99.90
14014;DHT22;49110;52.584;13.408;2023-08-21T04:19:37;23.50;99.90
14014;DHT22;49110;52.584;13.408;2023-08-21T04:20:37;23.40;99.90
14014;DHT22;49110;52.584;13.408;2023-08-21T04:21:38;23.30;99.90
14014;DHT22;49110;52.584;13.408;2023-08-21T04:22:38;23.30;99.90
14014;DHT22;49110;52.584;13.408;2023-08-21T04:23:39;23.30;99.90
14014;DHT22;49110;52.584;13.408;2023-08-21T04:24:41;23.20;99.90
14014;DHT22;49110;52.584;13.408;2023-08-21T04:25:41;23.30;99.90
14014;DHT22;49110;52.584;13.408;2023-08-21T04:26:43;23.30;99.90
14014;DHT22;49110;52.584;13.408;2023-08-21T04:27:43;23.30;99.90
14014;DHT22;49110;52.584;13.408;2023-08-21T04:28:45;23.40;99.90
14014;DHT22;49110;52.584;13.408;2023-08-21T04:29:46;23.30;99.90
14014;DHT22;49110;52.584;13.408;2023-08-21T04:30:46;23.30;99.90
14014;DHT22;49110;52.584;13.408;2023-08-21T04:31:47;23.40;99.90
14014;DHT22;49110;52.584;13.408;2023-08-21T04:32:48;23.40;99.90
14014;DHT22;49110;52.584;13.408;2023-08-21T04:33:48;23.40;99.90
14014;DHT22;49110;52.584;13.408;2023-08-21T04:34:49;23.50;99.90
14014;DHT22;49110;52.584;13.408;2023-08-21T04:35:49;23.50;99.90
14014;DHT22;49110;52.584;13.408;2023-08-21T04:36:50;23.50;99.90
14014;DHT22;49110;52.584;13.408;2023-08-21T04:37:50;23.40;99.90
14014;DHT22;49110;52.584;13.408;2023-08-21T04:38:50;23.30;99.90
14014;DHT22;49110;52.584;13.408;2023-08-21T04:39:52;23.30;99.90
14014;DHT22;49110;52.584;13.408;2023-08-21T04:40:53;23.20;99.90
14014;DHT22;49110;52.584;13.408;2023-08-21T04:41:53;23.30;99.90
14014;DHT22;49110;52.584;13.408;2023-08-21T04:42:54;23.40;99.90
14014;DHT22;49110;52.584;13.408;2023-08-21T04:43:54;23.40;99.90
14014;DHT22;49110;52.584;13.408;2023-08-21T04:44:55;23.40;99.90
14014;DHT22;49110;52.584;13.408;2023-08-21T04:45:55;23.40;99.90
14014;DHT22;49110;52.584;13.408;2023-08-21T04:46:56;23.40;99.90
14014;DHT22;49110;52.584;13.408;2023-08-21T04:47:56;23.40;99.90
14014;DHT22;49110;52.584;13.408;2023-08-21T04:48:56;23.40;99.90
14014;DHT22;49110;52.584;13.408;2023-08-21T04:49:58;23.50;99.90
14014;DHT22;49110;52.584;13.408;2023-08-21T04:50:58;23.50;99.90
14014;DHT22;49110;52.584;13.408;2023-08-21T04:51:59;23.50;99.90
14014;DHT22;49110;52.584;13.408;2023-08-21T04:52:59;23.50;99.90
14014;DHT22;49110;52.584;13.408;2023-08-21T04:54:00;23.50;99.90
14014;DHT22;49110;52.584;13.408;2023-08-21T04:55:00;23.50;99.90
14014;DHT22;49110;52.584;13.408;2023-08-21T04:56:01;23.50;99.90
14014;DHT22;49110;52.584;13.408;2023-08-21T04:57:01;23.50;99.90
14014;DHT22;49110;52.584;13.408;2023-08-21T04:58:02;23.50;99.90
14014;DHT22;49110;52.584;13.408;2023-08-21T04:59:02;23.60;99.90
14014;DHT22;49110;52.584;13.408;2023-08-21T05:00:03;23.50;99.90
14014;DHT22;49110;52.584;13.408;2023-08-21T05:01:07;23.60;99.90
14014;DHT22;49110;52.584;13.408;2023-08-21T05:02:07;23.60;99.90
14014;DHT22;49110;52.584;13.408;2023-08-21T05:03:08;23.60;99.90
14014;DHT22;49110;52.584;13.408;2023-08-21T05:04:09;23.60;99.90
14014;DHT22;49110;52.584;13.408;2023-08-21T05:05:09;23.60;99.90
14014;DHT22;49110;52.584;13.408;2023-08-21T05:06:10;23.60;99.90
14014;DHT22;49110;52.584;13.408;2023-08-21T05:07:10;23.60;99.90
14014;DHT22;49110;52.584;13.408;2023-08-21T05:08:11;23.60;99.90
14014;DHT22;49110;52.584;13.408;2023-08-21T05:09:11;23.60;99.90
14014;DHT22;49110;52.584;13.408;2023-08-21T05:10:12;23.60;99.90
14014;DHT22;49110;52.584;13.408;2023-08-21T05:11:12;23.70;99.90
14014;DHT22;49110;52.584;13.408;2023-08-21T05:12:13;23.70;99.90
14014;DHT22;49110;52.584;13.408;2023-08-21T05:13:13;23.70;99.90
14014;DHT22;49110;52.584;13.408;2023-08-21T05:14:17;23.70;99.90
14014;DHT22;49110;52.584;13.408;2023-08-21T05:15:20;23.80;99.90
14014;DHT22;49110;52.584;13.408;2023-08-21T05:16:20;23.80;99.90
14014;DHT22;49110;52.584;13.408;2023-08-21T05:17:20;23.80;99.90
14014;DHT22;49110;52.584;13.408;2023-08-21T05:18:21;23.80;99.90
14014;DHT22;49110;52.584;13.408;2023-08-21T05:19:22;23.80;99.90
14014;DHT22;49110;52.584;13.408;2023-08-21T05:20:23;23.80;99.90
14014;DHT22;49110;52.584;13.408;2023-08-21T05:21:23;23.80;99.90
14014;DHT22;49110;52.584;13.408;2023-08-21T05:22:24;23.90;99.90
14014;DHT22;49110;52.584;13.408;2023-08-21T05:23:24;23.80;99.90
14014;DHT22;49110;52.584;13.408;2023-08-21T05:24:24;23.90;99.90
14014;DHT22;49110;52.584;13.408;2023-08-21T05:25:25;23.90;99.90
14014;DHT22;49110;52.584;13.408;2023-08-21T05:26:25;23.90;99.90
14014;DHT22;49110;52.584;13.408;2023-08-21T05:27:26;24.00;99.90
14014;DHT22;49110;52.584;13.408;2023-08-21T05:28:26;24.00;99.90
14014;DHT22;49110;52.584;13.408;2023-08-21T05:29:27;23.90;99.90
14014;DHT22;49110;52.584;13.408;2023-08-21T05:30:27;24.00;99.90
14014;DHT22;49110;52.584;13.408;2023-08-21T05:31:28;24.00;99.90
14014;DHT22;49110;52.584;13.408;2023-08-21T05:32:28;24.00;99.90
14014;DHT22;49110;52.584;13.408;2023-08-21T05:33:29;24.00;99.90
14014;DHT22;49110;52.584;13.408;2023-08-21T05:34:30;24.00;99.90
14014;DHT22;49110;52.584;13.408;2023-08-21T05:35:35;24.00;99.90
14014;DHT22;49110;52.584;13.408;2023-08-21T05:36:36;24.10;99.90
14014;DHT22;49110;52.584;13.408;2023-08-21T05:37:36;24.10;99.90
14014;DHT22;49110;52.584;13.408;2023-08-21T05:38:37;24.00;99.90
14014;DHT22;49110;52.584;13.408;2023-08-21T05:39:37;24.10;99.90
14014;DHT22;49110;52.584;13.408;2023-08-21T05:40:39;24.10;99.90
14014;DHT22;49110;52.584;13.408;2023-08-21T05:41:40;24.10;99.90
14014;DHT22;49110;52.584;13.408;2023-08-21T05:42:40;24.10;99.90
14014;DHT22;49110;52.584;13.408;2023-08-21T05:43:41;24.10;99.90
14014;DHT22;49110;52.584;13.408;2023-08-21T05:44:42;24.10;99.90
14014;DHT22;49110;52.584;13.408;2023-08-21T05:45:43;24.20;99.90
14014;DHT22;49110;52.584;13.408;2023-08-21T05:46:43;24.20;99.90
14014;DHT22;49110;52.584;13.408;2023-08-21T05:47:44;24.20;99.90
14014;DHT22;49110;52.584;13.408;2023-08-21T05:48:44;24.20;99.90
14014;DHT22;49110;52.584;13.408;2023-08-21T05:49:45;24.20;99.90
14014;DHT22;49110;52.584;13.408;2023-08-21T05:50:54;24.10;99.90
14014;DHT22;49110;52.584;13.408;2023-08-21T05:51:56;24.00;99.90
14014;DHT22;49110;52.584;13.408;2023-08-21T05:52:58;24.00;99.90
14014;DHT22;49110;52.584;13.408;2023-08-21T05:54:01;24.10;99.90
14014;DHT22;49110;52.584;13.408;2023-08-21T05:55:02;24.00;99.90
14014;DHT22;49110;52.584;13.408;2023-08-21T05:56:03;24.00;99.90
14014;DHT22;49110;52.584;13.408;2023-08-21T05:57:03;23.90;99.90
14014;DHT22;49110;52.584;13.408;2023-08-21T05:58:04;23.90;99.90
14014;DHT22;49110;52.584;13.408;2023-08-21T05:59:05;23.90;99.90
14014;DHT22;49110;52.584;13.408;2023-08-21T06:00:06;23.90;99.90
14014;DHT22;49110;52.584;13.408;2023-08-21T06:01:08;24.00;99.90
14014;DHT22;49110;52.584;13.408;2023-08-21T06:02:09;23.90;99.90
14014;DHT22;49110;52.584;13.408;2023-08-21T06:03:10;24.00;99.90
14014;DHT22;49110;52.584;13.408;2023-08-21T06:04:10;24.10;99.90
14014;DHT22;49110;52.584;13.408;2023-08-21T06:05:10;24.10;99.90
14014;DHT22;49110;52.584;13.408;2023-08-21T06:06:11;24.10;99.90
14014;DHT22;49110;52.584;13.408;2023-08-21T06:07:11;24.20;99.90
14014;DHT22;49110;52.584;13.408;2023-08-21T06:08:12;24.20;99.90
14014;DHT22;49110;52.584;13.408;2023-08-21T06:09:12;24.20;99.90
14014;DHT22;49110;52.584;13.408;2023-08-21T06:10:13;24.20;99.90
14014;DHT22;49110;52.584;13.408;2023-08-21T06:11:15;24.20;99.90
14014;DHT22;49110;52.584;13.408;2023-08-21T06:12:16;24.30;99.90
14014;DHT22;49110;52.584;13.408;2023-08-21T06:13:16;24.30;99.90
14014;DHT22;49110;52.584;13.408;2023-08-21T06:14:17;24.30;99.90
14014;DHT22;49110;52.584;13.408;2023-08-21T06:15:17;24.30;99.90
14014;DHT22;49110;52.584;13.408;2023-08-21T06:16:18;24.30;99.90
14014;DHT22;49110;52.584;13.408;2023-08-21T06:17:18;24.30;99.90
14014;DHT22;49110;52.584;13.408;2023-08-21T06:18:19;24.30;99.90
14014;DHT22;49110;52.584;13.408;2023-08-21T06:19:20;24.30;99.90
14014;DHT22;49110;52.584;13.408;2023-08-21T06:20:20;24.30;99.90
14014;DHT22;49110;52.584;13.408;2023-08-21T06:21:20;24.30;99.90